Port Orford, OR (97465)

2:33 PM PDT on August 29, 2015 (GMT -0700)
Port Orford RV Village | | Change Station
CLOSE
Current Station
Personal Weather Station
Location: Port Orford, OR
Elevation: 47 ft
Nearby Weather Stations
Active Advisory: High Surf Advisory

Elev 47 ft 42.76 °N, 124.49 °W | Updated 2 seconds ago

Overcast
Overcast
61.7 °F
Feels Like 61.7 °F
N
1.0
Wind Variable Wind from SW
Gusts 13.0 mph

Today
High -- | Low -- °F
--% Chance of Precip.
Yesterday
High -- | Low -- °F
Precip. -- in
6:39 AM 7:57 PM
Full, 100% visible
Pressure 29.90 in
Visibility 10.0 miles
Clouds Mostly Cloudy 2900 ft
Mostly Cloudy 3700 ft
Overcast 4200 ft
Dew Point 60 °F
Humidity 95%
Rainfall 0.99 in
Snow Depth Not available.
UV 3 out of 12
Pollen 1.80 out of 12
Air Quality Not available.
Flu Activity Not available.
METAR KOTH 292115Z 22018G28KT 10SM BKN029 BKN037 OVC042 21/16 A2990 RMK AO1
Pressure 29.90 in
Visibility 10.0 miles
Clouds Mostly Cloudy 2900 ft
Mostly Cloudy 3700 ft
Overcast 4200 ft
Dew Point 60 °F
Humidity 95%
Rainfall 0.99 in
Snow Depth Not available.
UV 3 out of 12
Pollen 1.80 out of 12
Air Quality Not available.
Flu Activity Not available.
METAR KOTH 292115Z 22018G28KT 10SM BKN029 BKN037 OVC042 21/16 A2990 RMK AO1

10-Day Weather Forecast

×

Almanac

Astronomy

Aug. 29, 2015 Rise Set
Actual Time
Civil Twilight
Nautical Twilight
Astronomical Twilight
Moon
Length of Visible Light
Length of Day
Tomorrow will be .
, % of the Moon is Illuminated

Today's Extremes

State Highs State Lows

Community

WunderPhotos

Upload Photos

1,850,799 photos uploaded!

WunderBlogs® & News

Nearby

Air Quality

  Air Quality AQ Index Pollutant
Not available.

Snow Depth

Station Depth Elevation

Earthquake Activity

City Distance Mag. Time & Date
Minimum magnitude displayed is 2.5.

Coastal Water Temperatures

Place Temperature

Stations

Nearby Weather Stations

Station Location Temp. Windchill Dew Point Humidity Wind Precip. Elev Updated Type
                   
High Surf Advisory
Statement as of 2:27 PM PDT on August 29, 2015

... High surf advisory remains in effect until 5 PM PDT this
afternoon...

* waves and surf... strong winds will produce breaking waves of
14 to 18 feet on south facing beaches.

* Timing... waves have peaked... and will slowly diminish through
the late afternoon and evening.

* Locations... exposed beaches north of Humbug Mountain.

* Impacts... heavy surf will result in hazardous conditions along
area beaches... especially along more southerly oriented
coastlines. Also... damaging wave action is possible for low
lying areas and exposed infrastructure.

Precautionary/preparedness actions...

A high surf advisory means that high surf will affect beaches in
the advisory area... producing rip currents and localized beach
erosion.



Bpn